Aviation Digital Data Service (ADDS)

Output produced by METARs form (0330 UTC 31 July 2016)
found at http://www.aviationweather.gov/adds/metars/
 
KGED 310254Z AUTO 00000KT 10SM SCT080 BKN120 24/22 A3001 RMK AO2 SLP160 T02440222 51009